セントジョンズ の空港の天気 - METARとTAF

VCバード国際空港 ( TAPA / ANU ) - アンティグア・バーブーダ セントジョンズ (アンティグア島)
飛行場実況気象(Metar)
観測時間02/20 21:00 AST (02/21 01:00 UTC)
風向・風速東 6m/s
視程10km以上
天気現象
全天の8割程度の雲 雲底高度 550m
全天の4割程度の雲 雲底高度 1100m
気温24℃
湿度78%
気圧1018hPa
METARTAPA 210100Z 08011KT 9999 BKN018 SCT036 24/20 Q1018 NOSIG
過去の天気等 Google飛行場航空写真 Wunderground天気予報

過去48時間のMETAR

飛行場予報(TAF)
発表時間: 2/20 19:56 AST (2/20 23:56 UTC)
予報対象時間: 20日20時 AST ~ 21日20時 AST
風向・風速東北東 8m/s
視程10km以上
全天の4割程度の雲 雲底高度 610m
TAF TAPA 202356Z 2100/2124 07015KT 9999 SCT020